Terminal Aerodrome Forecast
Issued by NWS

Home | Current Version | Previous Version | Text Only | Print | Product List | Glossary On
Versions: 1 2 3 4 5 6 7 8 9 10 11 12 13
056
FTUS42 TJSJ 221736
TAFISX
TAF
TISX 221736Z 2218/2318 08015KT P6SM FEW030
     FM222300 06010KT P6SM FEW025 SCT040
     FM231400 09012G22KT P6SM FEW025=

USA.gov is the U.S. government's official web portal to all federal, state and local government web resources and services.